createdAt,value
2019-03-29T00:01:40.997Z,126.03
2019-03-29T00:04:09.403Z,139.77
2019-03-29T00:06:37.804Z,136.17
2019-03-29T00:09:07.891Z,144.70
2019-03-29T00:11:37.029Z,139.73
2019-03-29T00:14:05.427Z,146.33
2019-03-29T00:16:33.833Z,126.67
2019-03-29T00:19:02.989Z,142.13
2019-03-29T00:21:31.452Z,144.77
2019-03-29T00:24:06.695Z,149.77
2019-03-29T00:26:29.984Z,136.60
2019-03-29T00:28:58.365Z,145.03
2019-03-29T00:31:26.768Z,140.17
2019-03-29T00:33:55.315Z,148.67
2019-03-29T00:36:23.700Z,138.87
2019-03-29T00:38:52.097Z,138.30
2019-03-29T00:41:20.488Z,132.23
2019-03-29T00:43:48.884Z,139.47
2019-03-29T00:46:17.281Z,151.23
2019-03-29T00:48:45.677Z,159.50
2019-03-29T00:51:14.112Z,173.97
2019-03-29T00:53:42.505Z,160.77
2019-03-29T00:56:10.892Z,150.27
2019-03-29T00:58:39.297Z,179.43
2019-03-29T01:01:07.701Z,173.07
2019-03-29T01:03:37.023Z,171.53
2019-03-29T01:06:06.046Z,189.50
2019-03-29T01:08:34.429Z,191.97
2019-03-29T01:11:02.821Z,195.07
2019-03-29T01:13:31.239Z,184.97
2019-03-29T01:15:59.614Z,209.80
2019-03-29T01:18:28.023Z,185.83
2019-03-29T01:20:56.473Z,185.43
2019-03-29T01:23:25.153Z,177.47
2019-03-29T01:25:53.550Z,186.53
2019-03-29T01:28:21.936Z,187.10
2019-03-29T01:30:50.416Z,165.07
2019-03-29T01:33:18.813Z,169.67
2019-03-29T01:35:47.201Z,149.23
2019-03-29T01:38:21.560Z,166.00
2019-03-29T01:40:45.725Z,159.40
2019-03-29T01:43:14.120Z,167.17
2019-03-29T01:45:42.520Z,193.37
2019-03-29T01:48:10.940Z,211.50
2019-03-29T01:50:39.343Z,221.53
2019-03-29T01:53:07.732Z,228.00
2019-03-29T01:55:36.124Z,232.87
2019-03-29T01:58:04.570Z,230.47
2019-03-29T02:00:36.105Z,230.30
2019-03-29T02:03:06.227Z,216.87
2019-03-29T02:05:34.616Z,217.67
2019-03-29T02:08:03.004Z,207.43
2019-03-29T02:10:31.417Z,175.90
2019-03-29T02:12:59.885Z,187.27
2019-03-29T02:15:28.981Z,183.10
2019-03-29T02:17:57.376Z,171.37
2019-03-29T02:20:25.777Z,164.90
2019-03-29T02:22:54.169Z,166.30
2019-03-29T02:25:22.565Z,160.50
2019-03-29T02:27:50.992Z,175.23
2019-03-29T02:30:20.149Z,178.37
2019-03-29T02:32:48.553Z,187.20
2019-03-29T02:35:16.946Z,198.93
2019-03-29T02:37:45.341Z,195.57
2019-03-29T02:40:14.602Z,177.07
2019-03-29T02:42:43.354Z,197.93
2019-03-29T02:45:12.389Z,198.80
2019-03-29T02:47:40.799Z,193.33
2019-03-29T02:50:30.395Z,209.73
2019-03-29T02:52:58.797Z,191.77
2019-03-29T02:55:27.209Z,222.33
2019-03-29T02:57:55.634Z,223.53
2019-03-29T03:00:24.166Z,204.40
2019-03-29T03:02:52.549Z,235.23
2019-03-29T03:05:20.941Z,232.53
2019-03-29T03:07:49.353Z,217.90
2019-03-29T03:10:18.777Z,242.20
2019-03-29T03:12:47.170Z,227.67
2019-03-29T03:15:16.342Z,231.00
2019-03-29T03:17:44.742Z,221.87
2019-03-29T03:20:15.867Z,219.10
2019-03-29T03:22:44.696Z,211.30
2019-03-29T03:25:14.196Z,182.67
2019-03-29T03:27:42.616Z,189.60
2019-03-29T03:30:13.362Z,201.53
2019-03-29T03:32:41.896Z,184.87
2019-03-29T03:35:12.619Z,170.37
2019-03-29T03:37:41.030Z,187.77
2019-03-29T03:40:11.144Z,171.67
2019-03-29T03:42:39.537Z,181.47
2019-03-29T03:45:09.381Z,180.83
2019-03-29T03:47:39.455Z,182.37
2019-03-29T03:50:10.246Z,181.40
2019-03-29T03:52:38.706Z,180.40
2019-03-29T03:55:07.242Z,181.43
2019-03-29T03:57:38.351Z,182.80
2019-03-29T04:00:09.754Z,180.20
2019-03-29T04:02:38.146Z,186.00
2019-03-29T04:05:07.571Z,163.93
2019-03-29T04:07:35.966Z,169.23
2019-03-29T04:10:07.190Z,186.57
2019-03-29T04:12:35.608Z,193.33
2019-03-29T04:15:05.245Z,171.60
2019-03-29T04:17:33.621Z,202.40
2019-03-29T04:20:02.021Z,186.10
2019-03-29T04:22:30.405Z,184.43
2019-03-29T04:24:58.817Z,194.33
2019-03-29T04:27:27.194Z,213.33
2019-03-29T04:29:55.627Z,216.37
2019-03-29T04:32:24.021Z,223.93
2019-03-29T04:34:52.415Z,213.43
2019-03-29T04:37:20.822Z,214.37
2019-03-29T04:40:05.793Z,224.77
2019-03-29T04:42:19.320Z,196.10
2019-03-29T04:44:47.729Z,199.80
2019-03-29T04:47:16.190Z,191.07
2019-03-29T04:49:44.589Z,179.00
2019-03-29T04:52:12.989Z,191.03
2019-03-29T04:54:41.385Z,183.67
2019-03-29T04:57:09.794Z,186.63
2019-03-29T04:59:38.191Z,197.60
2019-03-29T05:02:06.590Z,214.53
2019-03-29T05:04:34.993Z,207.90
2019-03-29T05:07:03.386Z,228.80
2019-03-29T05:09:31.791Z,223.70
2019-03-29T05:12:00.557Z,228.07
2019-03-29T05:14:28.957Z,213.73
2019-03-29T05:16:57.345Z,202.63
2019-03-29T05:19:25.749Z,196.23
2019-03-29T05:21:54.157Z,182.10
2019-03-29T05:24:22.553Z,179.23
2019-03-29T05:26:50.944Z,158.93
2019-03-29T05:29:19.361Z,152.07
2019-03-29T05:31:47.749Z,152.23
2019-03-29T05:34:16.144Z,136.83
2019-03-29T05:36:44.553Z,129.00
2019-03-29T05:39:13.014Z,121.47
2019-03-29T05:41:41.401Z,129.27
2019-03-29T05:44:09.812Z,128.23
2019-03-29T05:46:38.221Z,128.77
2019-03-29T05:49:06.612Z,132.07
2019-03-29T05:51:35.023Z,126.07
2019-03-29T05:54:03.483Z,137.53
2019-03-29T05:56:31.889Z,127.67
2019-03-29T05:59:00.696Z,110.00
2019-03-29T06:01:29.139Z,100.07
2019-03-29T06:03:57.521Z,96.10
2019-03-29T06:06:25.901Z,89.90
2019-03-29T06:08:54.520Z,87.33
2019-03-29T06:11:24.068Z,79.20
2019-03-29T06:13:52.473Z,73.90
2019-03-29T06:16:20.863Z,82.87
2019-03-29T06:18:49.256Z,78.40
2019-03-29T06:21:17.667Z,73.20
2019-03-29T06:23:46.053Z,73.53
2019-03-29T06:26:14.459Z,75.27
2019-03-29T06:28:42.848Z,75.40
2019-03-29T06:31:11.300Z,79.83
2019-03-29T06:33:39.696Z,80.03
2019-03-29T06:36:10.622Z,82.70
2019-03-29T06:38:41.461Z,81.70
2019-03-29T06:41:09.922Z,87.53
2019-03-29T06:43:38.382Z,84.80
2019-03-29T06:46:06.855Z,86.87
2019-03-29T06:48:35.249Z,90.03
2019-03-29T06:51:03.645Z,93.83
2019-03-29T06:53:32.038Z,98.10
2019-03-29T06:56:00.442Z,97.23
2019-03-29T06:58:28.837Z,93.87
2019-03-29T07:00:57.231Z,92.00
2019-03-29T07:03:25.628Z,91.87
2019-03-29T07:05:54.023Z,90.10
2019-03-29T07:08:22.430Z,94.37
2019-03-29T07:10:50.821Z,95.67
2019-03-29T07:13:19.216Z,95.30
2019-03-29T07:15:47.601Z,99.90
2019-03-29T07:18:15.993Z,84.43
2019-03-29T07:20:44.395Z,90.97
2019-03-29T07:23:12.784Z,88.37
2019-03-29T07:25:41.193Z,87.10
2019-03-29T07:28:09.577Z,94.37
2019-03-29T07:30:37.964Z,89.07
2019-03-29T07:33:06.373Z,94.63
2019-03-29T07:35:34.800Z,94.07
2019-03-29T07:38:03.224Z,88.13
2019-03-29T07:40:31.635Z,85.33
2019-03-29T07:43:00.208Z,82.27
2019-03-29T07:45:28.581Z,78.43
2019-03-29T07:47:56.989Z,81.57
2019-03-29T07:50:25.453Z,80.90
2019-03-29T07:52:53.845Z,79.07
2019-03-29T07:55:22.322Z,77.10
2019-03-29T07:57:50.714Z,76.17
2019-03-29T08:00:20.568Z,70.13
2019-03-29T08:02:49.255Z,72.63
2019-03-29T08:05:18.144Z,74.43
2019-03-29T08:07:47.316Z,74.80
2019-03-29T08:10:24.886Z,71.03
2019-03-29T08:12:45.855Z,78.83
2019-03-29T08:15:14.462Z,70.83
2019-03-29T08:17:42.863Z,94.23
2019-03-29T08:20:37.413Z,72.03
2019-03-29T08:22:41.375Z,61.07
2019-03-29T08:25:09.834Z,68.80
2019-03-29T08:27:38.260Z,61.37
2019-03-29T08:30:08.481Z,63.40
2019-03-29T08:32:36.873Z,63.23
2019-03-29T08:35:07.041Z,57.93
2019-03-29T08:37:35.433Z,129.13
2019-03-29T08:40:05.755Z,68.77
2019-03-29T08:42:34.237Z,71.53
2019-03-29T08:45:02.717Z,55.40
2019-03-29T08:47:31.142Z,70.77
2019-03-29T08:49:59.588Z,191.80
2019-03-29T08:52:28.004Z,51.13
2019-03-29T08:54:56.399Z,214.00
2019-03-29T08:57:24.802Z,255.77
2019-03-29T08:59:53.209Z,270.67
2019-03-29T09:02:24.903Z,79.47
2019-03-29T09:04:52.788Z,48.57
2019-03-29T09:07:21.181Z,122.57
2019-03-29T09:09:49.585Z,234.97
2019-03-29T09:12:18.055Z,162.90
2019-03-29T09:14:46.465Z,60.43
2019-03-29T09:17:14.948Z,135.57
2019-03-29T09:19:43.363Z,44.33
2019-03-29T09:22:11.760Z,46.43
2019-03-29T09:24:40.156Z,48.87
2019-03-29T09:27:08.555Z,40.47
2019-03-29T09:29:36.945Z,77.77
2019-03-29T09:32:05.333Z,43.50
2019-03-29T09:34:33.738Z,39.13
2019-03-29T09:37:02.137Z,34.80
2019-03-29T09:39:30.535Z,39.27
2019-03-29T09:41:58.928Z,33.20
2019-03-29T09:44:27.336Z,36.63
2019-03-29T09:46:55.727Z,31.00
2019-03-29T09:49:24.140Z,30.90
2019-03-29T09:51:52.534Z,29.27
2019-03-29T09:54:20.933Z,32.43
2019-03-29T09:56:49.328Z,35.47
2019-03-29T09:59:17.739Z,33.40
2019-03-29T10:01:46.129Z,35.67
2019-03-29T10:04:14.522Z,27.07
2019-03-29T10:06:42.970Z,45.13
2019-03-29T10:09:11.397Z,31.13
2019-03-29T10:11:39.784Z,26.47
2019-03-29T10:14:08.181Z,26.17
2019-03-29T10:16:36.590Z,28.17
2019-03-29T10:19:04.987Z,21.97
2019-03-29T10:21:34.271Z,20.45
2019-03-29T10:24:03.277Z,20.52
2019-03-29T10:26:31.672Z,23.32
2019-03-29T10:29:00.077Z,22.48
2019-03-29T10:31:32.590Z,22.90
2019-03-29T10:33:58.589Z,23.47
2019-03-29T10:36:26.983Z,21.40
2019-03-29T10:38:55.381Z,22.77
2019-03-29T10:41:23.775Z,22.40
2019-03-29T10:43:52.176Z,21.45
2019-03-29T10:46:20.576Z,20.32
2019-03-29T10:48:48.984Z,20.88
2019-03-29T10:51:17.393Z,19.70
2019-03-29T10:53:45.797Z,21.02
2019-03-29T10:56:14.181Z,22.27
2019-03-29T10:58:44.906Z,18.95
2019-03-29T11:01:12.702Z,19.48
2019-03-29T11:03:41.127Z,18.25
2019-03-29T11:06:09.538Z,21.35
2019-03-29T11:08:38.009Z,21.07
2019-03-29T11:11:06.405Z,19.20
2019-03-29T11:13:34.814Z,17.10
2019-03-29T11:16:03.277Z,18.45
2019-03-29T11:18:31.665Z,19.00
2019-03-29T11:21:00.076Z,16.45
2019-03-29T11:23:28.465Z,24.25
2019-03-29T11:25:56.859Z,17.23
2019-03-29T11:28:25.259Z,17.50
2019-03-29T11:30:53.727Z,16.52
2019-03-29T11:33:22.134Z,17.90
2019-03-29T11:35:50.594Z,17.87
2019-03-29T11:38:19.073Z,17.02
2019-03-29T11:40:47.473Z,16.35
2019-03-29T11:43:26.586Z,15.28
2019-03-29T11:45:46.016Z,20.82
2019-03-29T11:48:14.417Z,17.02
2019-03-29T11:50:42.889Z,17.77
2019-03-29T11:53:11.297Z,12.03
2019-03-29T11:55:39.701Z,11.63
2019-03-29T11:58:08.108Z,12.00
2019-03-29T12:00:38.457Z,11.80
2019-03-29T12:03:09.546Z,15.15
2019-03-29T12:05:37.806Z,13.90
2019-03-29T12:08:07.447Z,11.57
2019-03-29T12:10:35.844Z,12.88
2019-03-29T12:13:05.560Z,11.18
2019-03-29T12:15:34.043Z,11.43
2019-03-29T12:18:02.425Z,11.00
2019-03-29T12:20:31.072Z,13.80
2019-03-29T12:22:59.649Z,13.13
2019-03-29T12:25:28.044Z,12.63
2019-03-29T12:27:56.449Z,16.80
2019-03-29T12:30:31.953Z,14.40
2019-03-29T12:32:55.288Z,15.20
2019-03-29T12:35:23.681Z,11.50
2019-03-29T12:37:52.085Z,11.95
2019-03-29T12:40:20.485Z,50.25
2019-03-29T12:42:48.899Z,22.30
2019-03-29T12:45:18.253Z,58.25
2019-03-29T12:47:46.658Z,14.18
2019-03-29T12:50:15.194Z,13.98
2019-03-29T12:52:43.581Z,20.48
2019-03-29T12:55:12.057Z,55.85
2019-03-29T12:57:40.444Z,14.50
2019-03-29T13:00:10.185Z,59.53
2019-03-29T13:02:38.725Z,69.17
2019-03-29T13:05:08.994Z,94.25
2019-03-29T13:07:37.408Z,26.50
2019-03-29T13:10:08.438Z,33.58
2019-03-29T13:12:36.888Z,37.48
2019-03-29T13:15:08.593Z,12.78
2019-03-29T13:17:37.848Z,31.05
2019-03-29T13:20:07.989Z,14.53
2019-03-29T13:22:36.452Z,23.92
2019-03-29T13:25:07.595Z,15.15
2019-03-29T13:27:36.343Z,15.80
2019-03-29T13:30:07.853Z,16.37
2019-03-29T13:32:36.315Z,15.75
2019-03-29T13:35:07.555Z,13.30
2019-03-29T13:37:35.965Z,13.72
2019-03-29T13:40:06.765Z,13.53
2019-03-29T13:42:35.184Z,14.55
2019-03-29T13:45:04.940Z,12.93
2019-03-29T13:47:54.074Z,15.48
2019-03-29T13:50:22.468Z,17.52
2019-03-29T13:52:50.865Z,14.07
2019-03-29T13:55:19.341Z,16.00
2019-03-29T13:57:47.761Z,14.68
2019-03-29T14:00:18.996Z,13.88
2019-03-29T14:02:47.443Z,13.68
2019-03-29T14:05:16.432Z,16.02
2019-03-29T14:07:44.801Z,11.95
2019-03-29T14:10:14.171Z,13.85
2019-03-29T14:12:42.573Z,16.80
2019-03-29T14:15:13.798Z,12.45
2019-03-29T14:17:43.081Z,12.37
2019-03-29T14:20:12.325Z,10.38
2019-03-29T14:22:40.716Z,11.20
2019-03-29T14:25:09.376Z,11.12
2019-03-29T14:27:37.786Z,13.15
2019-03-29T14:30:08.132Z,10.38
2019-03-29T14:32:36.592Z,11.18
2019-03-29T14:35:09.158Z,13.68
2019-03-29T14:37:37.563Z,14.55
2019-03-29T14:40:08.885Z,10.82
2019-03-29T14:42:37.291Z,13.32
2019-03-29T14:45:07.617Z,10.93
2019-03-29T14:47:43.298Z,13.22
2019-03-29T14:50:08.140Z,12.30
2019-03-29T14:52:37.415Z,10.10
2019-03-29T14:55:07.385Z,10.82
2019-03-29T14:57:35.754Z,11.53
2019-03-29T15:00:07.230Z,37.28
2019-03-29T15:02:35.801Z,11.75
2019-03-29T15:05:07.489Z,11.88
2019-03-29T15:07:36.858Z,11.55
2019-03-29T15:10:08.337Z,11.18
2019-03-29T15:12:36.763Z,10.10
2019-03-29T15:15:07.271Z,12.23
2019-03-29T15:17:35.901Z,11.83
2019-03-29T15:20:06.905Z,11.78
2019-03-29T15:22:35.297Z,12.43
2019-03-29T15:25:05.109Z,9.70
2019-03-29T15:27:33.525Z,10.48
2019-03-29T15:30:01.933Z,12.05
2019-03-29T15:32:30.328Z,9.48
2019-03-29T15:34:58.752Z,11.00
2019-03-29T15:37:27.158Z,13.67
2019-03-29T15:39:58.519Z,10.78
2019-03-29T15:42:27.281Z,9.20
2019-03-29T15:44:55.674Z,9.53
2019-03-29T15:47:25.507Z,10.70
2019-03-29T15:49:56.355Z,13.22
2019-03-29T15:52:24.025Z,21.25
2019-03-29T15:54:52.421Z,11.88
2019-03-29T15:57:20.831Z,11.73
2019-03-29T15:59:49.237Z,11.60
2019-03-29T16:02:17.648Z,9.40
2019-03-29T16:04:46.121Z,13.18
2019-03-29T16:07:14.545Z,13.03
2019-03-29T16:09:42.962Z,10.13
2019-03-29T16:12:11.354Z,12.25
2019-03-29T16:14:39.745Z,11.93
2019-03-29T16:17:08.156Z,10.38
2019-03-29T16:19:36.553Z,12.58
2019-03-29T16:22:06.207Z,10.10
2019-03-29T16:24:34.757Z,10.83
2019-03-29T16:27:03.169Z,9.73
2019-03-29T16:29:31.553Z,9.33
2019-03-29T16:31:59.936Z,9.47
2019-03-29T16:34:28.333Z,9.57
2019-03-29T16:36:56.720Z,10.43
2019-03-29T16:39:25.133Z,12.77
2019-03-29T16:41:54.280Z,9.30
2019-03-29T16:44:22.745Z,11.13
2019-03-29T16:46:51.216Z,11.33
2019-03-29T16:49:19.609Z,11.73
2019-03-29T16:51:48.005Z,10.83
2019-03-29T16:54:16.481Z,11.47
2019-03-29T16:56:44.873Z,11.47
2019-03-29T16:59:13.434Z,12.97
2019-03-29T17:01:41.827Z,9.83
2019-03-29T17:04:10.212Z,9.40
2019-03-29T17:06:38.609Z,10.27
2019-03-29T17:09:08.262Z,12.30
2019-03-29T17:11:36.662Z,11.53
2019-03-29T17:14:05.127Z,11.30
2019-03-29T17:16:33.600Z,9.83
2019-03-29T17:19:01.990Z,13.13
2019-03-29T17:21:30.385Z,10.83
2019-03-29T17:23:58.778Z,8.60
2019-03-29T17:26:27.309Z,9.77
2019-03-29T17:28:55.777Z,7.77
2019-03-29T17:31:24.168Z,11.27
2019-03-29T17:33:52.572Z,10.10
2019-03-29T17:36:20.972Z,14.17
2019-03-29T17:38:49.416Z,10.97
2019-03-29T17:41:17.971Z,10.97
2019-03-29T17:43:46.360Z,16.83
2019-03-29T17:46:16.615Z,14.07
2019-03-29T17:48:44.864Z,11.90
2019-03-29T17:51:13.280Z,13.73
2019-03-29T17:53:41.672Z,14.53
2019-03-29T17:56:10.203Z,15.53
2019-03-29T17:58:38.606Z,13.27
2019-03-29T18:01:06.984Z,15.77
2019-03-29T18:03:35.377Z,15.20
2019-03-29T18:06:03.930Z,16.03
2019-03-29T18:08:32.309Z,13.57
2019-03-29T18:11:00.706Z,15.00
2019-03-29T18:13:29.093Z,14.20
2019-03-29T18:15:57.488Z,13.10
2019-03-29T18:18:25.885Z,12.73
2019-03-29T18:20:54.297Z,11.73
2019-03-29T18:23:24.943Z,14.40
2019-03-29T18:25:52.808Z,17.73
2019-03-29T18:28:21.205Z,18.43
2019-03-29T18:30:49.628Z,19.17
2019-03-29T18:33:19.389Z,16.33
2019-03-29T18:35:47.781Z,16.33
2019-03-29T18:38:16.185Z,15.47
2019-03-29T18:40:44.621Z,15.97
2019-03-29T18:43:13.013Z,17.93
2019-03-29T18:45:41.935Z,12.50
2019-03-29T18:48:11.009Z,13.67
2019-03-29T18:50:39.412Z,15.47
2019-03-29T18:53:07.808Z,11.93
2019-03-29T18:55:36.220Z,14.00
2019-03-29T18:58:06.038Z,13.17
2019-03-29T19:00:36.458Z,20.57
2019-03-29T19:03:05.736Z,15.67
2019-03-29T19:05:35.658Z,15.70
2019-03-29T19:08:05.102Z,17.00
2019-03-29T19:10:33.515Z,13.33
2019-03-29T19:13:01.901Z,12.83
2019-03-29T19:15:31.507Z,11.87
2019-03-29T19:18:00.073Z,14.57
2019-03-29T19:20:28.535Z,13.93
2019-03-29T19:22:56.942Z,14.90
2019-03-29T19:25:25.412Z,11.77
2019-03-29T19:27:53.817Z,14.83
2019-03-29T19:30:23.940Z,17.03
2019-03-29T19:32:52.345Z,16.10
2019-03-29T19:35:20.734Z,14.67
2019-03-29T19:37:49.120Z,15.87
2019-03-29T19:40:17.588Z,17.17
2019-03-29T19:42:45.979Z,16.87
2019-03-29T19:45:14.877Z,19.50
2019-03-29T19:47:43.272Z,16.67
2019-03-29T19:50:13.000Z,18.63
2019-03-29T19:52:41.413Z,16.80
2019-03-29T19:55:10.746Z,16.63
2019-03-29T19:57:39.132Z,16.17
2019-03-29T20:00:13.421Z,16.17
2019-03-29T20:02:41.816Z,12.83
2019-03-29T20:05:15.876Z,19.97
2019-03-29T20:07:44.291Z,19.37
2019-03-29T20:10:12.740Z,18.53
2019-03-29T20:12:41.136Z,19.20
2019-03-29T20:15:09.670Z,20.60
2019-03-29T20:17:38.062Z,16.43
2019-03-29T20:20:06.602Z,16.60
2019-03-29T20:22:34.989Z,19.13
2019-03-29T20:25:04.642Z,13.43
2019-03-29T20:27:33.047Z,20.47
2019-03-29T20:30:01.444Z,18.00
2019-03-29T20:32:29.828Z,16.83
2019-03-29T20:34:58.220Z,20.33
2019-03-29T20:37:27.817Z,15.77
2019-03-29T20:39:56.200Z,19.67
2019-03-29T20:42:24.989Z,16.47
2019-03-29T20:44:54.072Z,24.57
2019-03-29T20:47:22.465Z,30.57
2019-03-29T20:49:50.865Z,19.87
2019-03-29T20:52:19.257Z,15.70
2019-03-29T20:54:47.653Z,16.07
2019-03-29T20:57:16.066Z,16.50
2019-03-29T20:59:44.459Z,17.17
2019-03-29T21:02:12.848Z,20.00
2019-03-29T21:04:41.241Z,16.00
2019-03-29T21:07:09.641Z,17.07
2019-03-29T21:09:38.103Z,15.87
2019-03-29T21:12:06.486Z,14.70
2019-03-29T21:14:34.957Z,14.43
2019-03-29T21:17:03.382Z,14.97
2019-03-29T21:19:31.761Z,16.83
2019-03-29T21:22:00.148Z,15.60
2019-03-29T21:24:28.549Z,14.83
2019-03-29T21:26:56.929Z,13.60
2019-03-29T21:29:25.329Z,13.17
2019-03-29T21:31:53.776Z,13.13
2019-03-29T21:34:22.185Z,14.10
2019-03-29T21:36:50.583Z,17.30
2019-03-29T21:39:18.975Z,16.07
2019-03-29T21:41:47.467Z,14.23
2019-03-29T21:44:15.840Z,14.60
2019-03-29T21:46:44.244Z,14.27
2019-03-29T21:49:12.641Z,15.10
2019-03-29T21:51:41.030Z,13.10
2019-03-29T21:54:09.441Z,13.50
2019-03-29T21:56:37.839Z,13.50
2019-03-29T21:59:06.231Z,14.67
2019-03-29T22:01:34.617Z,14.13
2019-03-29T22:04:03.014Z,14.37
2019-03-29T22:06:31.396Z,12.83
2019-03-29T22:08:59.792Z,12.90
2019-03-29T22:11:28.176Z,16.57
2019-03-29T22:13:56.573Z,11.70
2019-03-29T22:16:24.976Z,12.90
2019-03-29T22:18:53.373Z,13.30
2019-03-29T22:21:21.861Z,12.80
2019-03-29T22:23:50.234Z,13.63
2019-03-29T22:26:18.616Z,11.80
2019-03-29T22:28:47.183Z,15.00
2019-03-29T22:31:16.123Z,13.60
2019-03-29T22:33:44.500Z,12.57
2019-03-29T22:36:12.881Z,14.03
2019-03-29T22:38:41.305Z,14.50
2019-03-29T22:41:09.685Z,13.13
2019-03-29T22:43:38.068Z,12.60
2019-03-29T22:46:06.481Z,15.10
2019-03-29T22:48:34.864Z,15.23
2019-03-29T22:51:03.287Z,14.97
2019-03-29T22:53:31.722Z,14.77
2019-03-29T22:56:00.106Z,11.67
2019-03-29T22:58:28.730Z,14.80
2019-03-29T23:00:59.489Z,12.07
2019-03-29T23:03:27.892Z,11.30
2019-03-29T23:05:56.288Z,14.63
2019-03-29T23:08:24.676Z,15.87
2019-03-29T23:10:53.055Z,11.77
2019-03-29T23:13:21.641Z,13.53
2019-03-29T23:15:50.021Z,13.07
2019-03-29T23:18:18.410Z,11.30
2019-03-29T23:20:47.161Z,10.57
2019-03-29T23:23:16.076Z,11.03
2019-03-29T23:25:44.456Z,10.97
2019-03-29T23:28:12.844Z,11.10
2019-03-29T23:30:41.230Z,12.77
2019-03-29T23:33:09.676Z,14.00
2019-03-29T23:35:38.060Z,12.47
2019-03-29T23:38:06.456Z,11.97
2019-03-29T23:40:34.900Z,15.20
2019-03-29T23:43:03.311Z,12.07
2019-03-29T23:45:31.725Z,11.33
2019-03-29T23:48:00.121Z,14.33
2019-03-29T23:50:28.577Z,14.83
2019-03-29T23:52:56.993Z,11.57
2019-03-29T23:55:25.376Z,14.17
2019-03-29T23:57:53.820Z,14.43
